createdAt,value
2018-07-03T00:01:37.464Z,18.09
2018-07-03T00:04:07.420Z,18.00
2018-07-03T00:06:36.780Z,18.18
2018-07-03T00:09:08.136Z,18.25
2018-07-03T00:11:37.741Z,18.03
2018-07-03T00:14:07.488Z,17.97
2018-07-03T00:16:42.009Z,17.87
2018-07-03T00:19:12.401Z,17.62
2018-07-03T00:21:41.768Z,17.56
2018-07-03T00:24:11.168Z,17.39
2018-07-03T00:26:40.550Z,17.46
2018-07-03T00:29:09.876Z,17.24
2018-07-03T00:31:39.221Z,17.05
2018-07-03T00:34:08.917Z,17.03
2018-07-03T00:36:38.815Z,16.71
2018-07-03T00:39:09.582Z,16.74
2018-07-03T00:41:38.934Z,16.69
2018-07-03T00:44:08.619Z,16.58
2018-07-03T00:46:38.053Z,16.49
2018-07-03T00:49:07.738Z,16.52
2018-07-03T00:51:37.071Z,16.38
2018-07-03T00:54:06.429Z,16.30
2018-07-03T00:56:36.043Z,16.11
2018-07-03T00:59:06.001Z,16.07
2018-07-03T01:01:35.690Z,16.33
2018-07-03T01:04:05.130Z,16.29
2018-07-03T01:06:35.288Z,16.16
2018-07-03T01:09:07.329Z,16.33
2018-07-03T01:11:38.268Z,15.74
2018-07-03T01:14:07.917Z,15.56
2018-07-03T01:16:37.218Z,15.61
2018-07-03T01:19:06.715Z,15.35
2018-07-03T01:21:36.343Z,15.51
2018-07-03T01:24:05.979Z,15.58
2018-07-03T01:26:35.309Z,15.80
2018-07-03T01:29:05.261Z,15.95
2018-07-03T01:31:35.588Z,16.04
2018-07-03T01:34:05.111Z,16.03
2018-07-03T01:36:34.459Z,16.03
2018-07-03T01:39:04.938Z,16.01
2018-07-03T01:41:35.161Z,15.87
2018-07-03T01:44:04.840Z,15.97
2018-07-03T01:46:34.156Z,16.05
2018-07-03T01:49:03.553Z,15.98
2018-07-03T01:51:32.903Z,15.99
2018-07-03T01:54:02.775Z,16.09
2018-07-03T01:56:32.579Z,16.23
2018-07-03T01:59:01.921Z,16.21
2018-07-03T02:01:32.096Z,16.13
2018-07-03T02:04:01.771Z,16.06
2018-07-03T02:06:31.117Z,15.95
2018-07-03T02:09:00.768Z,16.09
2018-07-03T02:11:31.333Z,15.94
2018-07-03T02:14:00.659Z,15.64
2018-07-03T02:16:29.977Z,15.51
2018-07-03T02:18:59.429Z,15.40
2018-07-03T02:21:28.965Z,15.45
2018-07-03T02:23:58.615Z,15.40
2018-07-03T02:26:27.976Z,15.39
2018-07-03T02:28:57.295Z,15.36
2018-07-03T02:31:27.257Z,15.42
2018-07-03T02:33:56.599Z,15.40
2018-07-03T02:36:25.944Z,15.32
2018-07-03T02:38:55.320Z,15.24
2018-07-03T02:41:24.899Z,15.31
2018-07-03T02:43:54.244Z,15.25
2018-07-03T02:46:23.611Z,15.45
2018-07-03T02:48:52.960Z,15.35
2018-07-03T02:51:22.296Z,15.22
2018-07-03T02:53:52.617Z,15.32
2018-07-03T02:56:22.241Z,15.22
2018-07-03T02:58:51.569Z,15.16
2018-07-03T03:01:20.993Z,14.88
2018-07-03T03:03:50.723Z,14.66
2018-07-03T03:06:20.442Z,14.70
2018-07-03T03:08:50.054Z,14.74
2018-07-03T03:11:23.066Z,14.75
2018-07-03T03:13:55.795Z,14.95
2018-07-03T03:16:25.528Z,14.81
2018-07-03T03:18:55.127Z,14.85
2018-07-03T03:21:25.178Z,14.89
2018-07-03T03:23:54.869Z,14.81
2018-07-03T03:26:24.225Z,14.80
2018-07-03T03:28:53.598Z,14.79
2018-07-03T03:31:23.028Z,14.64
2018-07-03T03:33:52.898Z,14.66
2018-07-03T03:36:22.284Z,14.73
2018-07-03T03:38:51.756Z,14.63
2018-07-03T03:41:21.276Z,14.55
2018-07-03T03:43:51.894Z,14.63
2018-07-03T03:46:21.350Z,14.43
2018-07-03T03:48:51.848Z,14.58
2018-07-03T03:51:21.390Z,14.43
2018-07-03T03:53:50.992Z,14.34
2018-07-03T03:56:20.664Z,14.24
2018-07-03T03:58:50.015Z,14.05
2018-07-03T04:01:19.740Z,13.99
2018-07-03T04:03:49.592Z,14.15
2018-07-03T04:06:18.923Z,14.17
2018-07-03T04:08:48.303Z,14.11
2018-07-03T04:11:17.644Z,14.24
2018-07-03T04:13:47.208Z,14.27
2018-07-03T04:16:16.678Z,14.42
2018-07-03T04:18:46.602Z,14.43
2018-07-03T04:21:16.242Z,14.38
2018-07-03T04:23:46.149Z,14.31
2018-07-03T04:26:16.121Z,14.41
2018-07-03T04:28:46.381Z,14.39
2018-07-03T04:31:15.724Z,14.27
2018-07-03T04:33:45.200Z,14.23
2018-07-03T04:36:14.540Z,14.22
2018-07-03T04:38:44.531Z,14.41
2018-07-03T04:41:14.120Z,14.62
2018-07-03T04:43:43.440Z,14.86
2018-07-03T04:46:13.096Z,15.05
2018-07-03T04:48:42.870Z,15.02
2018-07-03T04:51:14.553Z,15.24
2018-07-03T04:53:44.658Z,15.32
2018-07-03T04:56:14.329Z,15.38
2018-07-03T04:58:43.649Z,15.46
2018-07-03T05:01:13.870Z,15.51
2018-07-03T05:03:43.193Z,15.44
2018-07-03T05:06:12.927Z,15.44
2018-07-03T05:08:43.494Z,15.50
2018-07-03T05:11:12.856Z,15.60
2018-07-03T05:13:42.175Z,15.65
2018-07-03T05:16:12.027Z,15.85
2018-07-03T05:18:42.143Z,15.95
2018-07-03T05:21:12.744Z,15.83
2018-07-03T05:23:42.040Z,16.08
2018-07-03T05:26:11.370Z,15.80
2018-07-03T05:28:40.906Z,16.21
2018-07-03T05:31:11.029Z,16.19
2018-07-03T05:33:40.350Z,16.31
2018-07-03T05:36:11.109Z,16.49
2018-07-03T05:38:40.653Z,16.63
2018-07-03T05:41:11.022Z,16.67
2018-07-03T05:43:40.353Z,16.79
2018-07-03T05:46:10.348Z,16.96
2018-07-03T05:48:39.704Z,17.01
2018-07-03T05:51:09.309Z,17.21
2018-07-03T05:53:38.871Z,17.29
2018-07-03T05:56:08.273Z,17.41
2018-07-03T05:58:37.594Z,17.54
2018-07-03T06:01:06.945Z,17.72
2018-07-03T06:03:36.287Z,17.77
2018-07-03T06:06:06.033Z,17.90
2018-07-03T06:08:35.392Z,18.01
2018-07-03T06:11:05.571Z,18.10
2018-07-03T06:13:35.119Z,18.17
2018-07-03T06:16:04.566Z,18.19
2018-07-03T06:18:34.160Z,18.29
2018-07-03T06:21:03.927Z,18.35
2018-07-03T06:23:33.678Z,18.46
2018-07-03T06:26:03.292Z,18.48
2018-07-03T06:28:32.721Z,18.74
2018-07-03T06:31:02.033Z,18.83
2018-07-03T06:33:32.125Z,18.90
2018-07-03T06:36:02.275Z,19.11
2018-07-03T06:38:31.635Z,19.23
2018-07-03T06:41:00.976Z,19.23
2018-07-03T06:43:31.038Z,19.38
2018-07-03T06:46:00.853Z,19.25
2018-07-03T06:48:30.533Z,19.58
2018-07-03T06:50:59.880Z,19.64
2018-07-03T06:53:30.731Z,19.65
2018-07-03T06:56:00.042Z,19.79
2018-07-03T06:58:29.397Z,19.93
2018-07-03T07:01:00.228Z,19.90
2018-07-03T07:03:31.278Z,20.00
2018-07-03T07:06:01.348Z,20.18
2018-07-03T07:08:30.769Z,20.21
2018-07-03T07:11:01.076Z,20.47
2018-07-03T07:13:31.813Z,20.62
2018-07-03T07:16:01.246Z,20.72
2018-07-03T07:18:31.264Z,20.89
2018-07-03T07:21:00.762Z,20.86
2018-07-03T07:23:30.078Z,21.14
2018-07-03T07:25:59.769Z,21.24
2018-07-03T07:28:29.444Z,21.49
2018-07-03T07:31:00.031Z,21.63
2018-07-03T07:33:30.117Z,21.59
2018-07-03T07:36:02.882Z,21.70
2018-07-03T07:38:32.237Z,21.87
2018-07-03T07:41:01.588Z,22.17
2018-07-03T07:43:31.432Z,22.30
2018-07-03T07:46:02.262Z,22.63
2018-07-03T07:48:32.156Z,22.67
2018-07-03T07:51:01.522Z,22.74
2018-07-03T07:53:31.774Z,22.72
2018-07-03T07:56:01.183Z,22.98
2018-07-03T07:58:30.772Z,23.23
2018-07-03T08:01:00.129Z,23.19
2018-07-03T08:03:29.469Z,23.39
2018-07-03T08:05:59.342Z,23.48
2018-07-03T08:08:28.665Z,23.53
2018-07-03T08:10:58.201Z,23.54
2018-07-03T08:13:28.210Z,23.70
2018-07-03T08:15:57.625Z,23.91
2018-07-03T08:18:26.952Z,24.24
2018-07-03T08:20:56.323Z,23.96
2018-07-03T08:23:26.591Z,24.23
2018-07-03T08:25:56.275Z,24.31
2018-07-03T08:28:25.586Z,24.18
2018-07-03T08:30:55.234Z,24.32
2018-07-03T08:33:26.377Z,24.59
2018-07-03T08:35:56.080Z,24.37
2018-07-03T08:38:25.870Z,24.75
2018-07-03T08:40:56.032Z,24.75
2018-07-03T08:43:26.173Z,24.15
2018-07-03T08:45:55.952Z,24.68
2018-07-03T08:48:25.660Z,24.54
2018-07-03T08:50:55.036Z,24.76
2018-07-03T08:53:25.860Z,24.91
2018-07-03T08:55:55.474Z,25.14
2018-07-03T08:58:25.111Z,25.36
2018-07-03T09:00:55.325Z,25.34
2018-07-03T09:03:24.719Z,25.39
2018-07-03T09:05:54.057Z,25.62
2018-07-03T09:08:24.440Z,25.08
2018-07-03T09:10:54.083Z,25.27
2018-07-03T09:13:23.681Z,25.48
2018-07-03T09:15:53.048Z,25.62
2018-07-03T09:18:22.688Z,25.96
2018-07-03T09:20:52.026Z,26.20
2018-07-03T09:23:21.396Z,25.89
2018-07-03T09:25:51.591Z,26.15
2018-07-03T09:28:21.308Z,26.42
2018-07-03T09:30:50.705Z,26.40
2018-07-03T09:33:21.529Z,26.54
2018-07-03T09:35:51.597Z,26.17
2018-07-03T09:38:20.956Z,26.39
2018-07-03T09:40:51.144Z,26.28
2018-07-03T09:43:20.497Z,26.70
2018-07-03T09:45:50.236Z,26.47
2018-07-03T09:48:19.898Z,26.75
2018-07-03T09:50:49.841Z,26.94
2018-07-03T09:53:20.007Z,26.15
2018-07-03T09:55:49.433Z,26.72
2018-07-03T09:58:19.528Z,27.16
2018-07-03T10:00:55.153Z,27.18
2018-07-03T10:03:27.940Z,27.59
2018-07-03T10:05:59.841Z,27.68
2018-07-03T10:08:30.591Z,27.77
2018-07-03T10:10:59.936Z,27.98
2018-07-03T10:13:30.421Z,27.78
2018-07-03T10:16:00.278Z,28.18
2018-07-03T10:18:29.632Z,28.48
2018-07-03T10:20:58.991Z,28.40
2018-07-03T10:23:28.727Z,28.42
2018-07-03T10:25:58.479Z,27.68
2018-07-03T10:28:29.034Z,27.59
2018-07-03T10:30:58.378Z,27.33
2018-07-03T10:33:27.944Z,27.85
2018-07-03T10:35:58.137Z,27.86
2018-07-03T10:38:28.264Z,28.59
2018-07-03T10:40:58.541Z,28.77
2018-07-03T10:43:27.901Z,28.67
2018-07-03T10:46:01.699Z,28.94
2018-07-03T10:48:31.599Z,28.64
2018-07-03T10:51:00.941Z,28.99
2018-07-03T10:53:34.328Z,29.34
2018-07-03T10:56:04.049Z,29.33
2018-07-03T10:58:34.188Z,29.49
2018-07-03T11:01:03.604Z,30.25
2018-07-03T11:03:38.794Z,30.00
2018-07-03T11:06:11.520Z,30.53
2018-07-03T11:08:41.109Z,30.03
2018-07-03T11:11:10.432Z,29.72
2018-07-03T11:13:40.355Z,30.36
2018-07-03T11:16:10.132Z,30.03
2018-07-03T11:18:39.712Z,30.22
2018-07-03T11:21:10.053Z,30.35
2018-07-03T11:23:40.387Z,30.07
2018-07-03T11:26:09.775Z,29.84
2018-07-03T11:28:39.501Z,30.42
2018-07-03T11:31:09.595Z,31.04
2018-07-03T11:33:39.529Z,31.02
2018-07-03T11:36:09.423Z,31.05
2018-07-03T11:38:39.671Z,31.45
2018-07-03T11:41:09.401Z,29.91
2018-07-03T11:43:39.264Z,31.02
2018-07-03T11:46:08.894Z,31.35
2018-07-03T11:48:38.538Z,31.37
2018-07-03T11:51:07.906Z,28.90
2018-07-03T11:53:38.322Z,29.67
2018-07-03T11:56:08.009Z,30.78
2018-07-03T11:58:37.860Z,31.29
2018-07-03T12:01:08.199Z,31.14
2018-07-03T12:03:38.542Z,31.43
2018-07-03T12:06:08.267Z,30.71
2018-07-03T12:08:38.008Z,31.27
2018-07-03T12:11:07.785Z,31.26
2018-07-03T12:13:37.131Z,31.84
2018-07-03T12:16:06.516Z,31.93
2018-07-03T12:18:41.330Z,32.26
2018-07-03T12:21:11.120Z,31.96
2018-07-03T12:23:40.899Z,32.57
2018-07-03T12:26:10.292Z,31.77
2018-07-03T12:28:40.024Z,31.76
2018-07-03T12:31:09.660Z,30.95
2018-07-03T12:33:40.228Z,31.65
2018-07-03T12:36:10.310Z,32.01
2018-07-03T12:38:40.212Z,32.40
2018-07-03T12:41:10.349Z,32.18
2018-07-03T12:43:40.708Z,32.32
2018-07-03T12:46:10.058Z,32.63
2018-07-03T12:48:39.490Z,32.99
2018-07-03T12:51:08.876Z,33.35
2018-07-03T12:53:38.211Z,33.25
2018-07-03T12:56:07.652Z,32.85
2018-07-03T12:58:37.037Z,32.57
2018-07-03T13:01:06.716Z,33.24
2018-07-03T13:03:36.880Z,32.79
2018-07-03T13:06:07.018Z,33.18
2018-07-03T13:08:37.142Z,33.76
2018-07-03T13:11:06.875Z,33.69
2018-07-03T13:13:36.780Z,34.08
2018-07-03T13:16:07.363Z,34.48
2018-07-03T13:18:36.661Z,34.43
2018-07-03T13:21:06.112Z,33.89
2018-07-03T13:23:35.670Z,33.83
2018-07-03T13:26:06.014Z,33.92
2018-07-03T13:28:35.367Z,34.13
2018-07-03T13:31:04.742Z,34.50
2018-07-03T13:33:34.192Z,34.16
2018-07-03T13:36:04.001Z,33.62
2018-07-03T13:38:33.998Z,33.80
2018-07-03T13:41:03.371Z,32.96
2018-07-03T13:43:32.689Z,33.39
2018-07-03T13:46:02.298Z,33.79
2018-07-03T13:48:31.617Z,32.11
2018-07-03T13:51:01.015Z,32.87
2018-07-03T13:53:30.321Z,33.22
2018-07-03T13:55:59.642Z,31.72
2018-07-03T13:58:29.225Z,32.86
2018-07-03T14:00:59.191Z,33.49
2018-07-03T14:03:30.010Z,33.44
2018-07-03T14:05:59.654Z,33.18
2018-07-03T14:08:29.771Z,32.88
2018-07-03T14:10:59.171Z,32.72
2018-07-03T14:13:28.810Z,31.71
2018-07-03T14:15:58.215Z,30.90
2018-07-03T14:18:28.971Z,31.61
2018-07-03T14:20:59.519Z,32.09
2018-07-03T14:23:29.897Z,32.29
2018-07-03T14:26:00.599Z,32.86
2018-07-03T14:28:30.161Z,33.58
2018-07-03T14:31:00.315Z,34.21
2018-07-03T14:33:30.116Z,34.18
2018-07-03T14:35:59.442Z,33.36
2018-07-03T14:38:30.058Z,32.92
2018-07-03T14:40:59.381Z,34.00
2018-07-03T14:43:28.724Z,33.90
2018-07-03T14:45:58.240Z,33.79
2018-07-03T14:48:27.614Z,34.06
2018-07-03T14:50:57.787Z,33.83
2018-07-03T14:53:27.877Z,33.91
2018-07-03T14:55:58.646Z,33.66
2018-07-03T14:58:28.383Z,33.71
2018-07-03T15:00:58.836Z,33.70
2018-07-03T15:03:28.600Z,34.48
2018-07-03T15:05:59.502Z,34.34
2018-07-03T15:08:29.364Z,33.96
2018-07-03T15:10:58.943Z,34.18
2018-07-03T15:13:28.691Z,34.62
2018-07-03T15:15:58.008Z,34.34
2018-07-03T15:18:31.505Z,33.62
2018-07-03T15:21:01.063Z,33.89
2018-07-03T15:23:30.742Z,34.43
2018-07-03T15:26:00.309Z,34.24
2018-07-03T15:28:29.665Z,34.31
2018-07-03T15:30:59.287Z,34.41
2018-07-03T15:33:28.954Z,35.43
2018-07-03T15:35:58.276Z,35.09
2018-07-03T15:38:27.933Z,35.40
2018-07-03T15:40:57.279Z,34.85
2018-07-03T15:43:26.992Z,34.60
2018-07-03T15:45:56.580Z,34.48
2018-07-03T15:48:25.919Z,34.04
2018-07-03T15:50:55.249Z,34.72
2018-07-03T15:53:24.969Z,35.53
2018-07-03T15:55:55.376Z,33.76
2018-07-03T15:58:24.708Z,33.91
2018-07-03T16:00:54.457Z,35.32
2018-07-03T16:05:37.883Z,34.35
2018-07-03T16:08:22.099Z,34.13
2018-07-03T16:10:51.858Z,34.24
2018-07-03T16:13:21.637Z,34.38
2018-07-03T16:15:50.987Z,34.14
2018-07-03T16:18:20.328Z,34.26
2018-07-03T16:20:49.675Z,34.77
2018-07-03T16:23:19.327Z,34.57
2018-07-03T16:25:49.297Z,33.41
2018-07-03T16:28:19.192Z,34.45
2018-07-03T16:30:48.608Z,34.73
2018-07-03T16:33:18.159Z,35.03
2018-07-03T16:35:47.500Z,34.39
2018-07-03T16:38:18.393Z,34.80
2018-07-03T16:40:48.221Z,35.00
2018-07-03T16:43:17.541Z,35.29
2018-07-03T16:45:47.980Z,35.25
2018-07-03T16:48:19.160Z,35.33
2018-07-03T16:50:48.529Z,35.50
2018-07-03T16:53:17.796Z,35.14
2018-07-03T16:55:47.378Z,35.28
2018-07-03T16:58:20.049Z,35.67
2018-07-03T17:00:49.776Z,35.41
2018-07-03T17:03:19.515Z,35.12
2018-07-03T17:05:49.212Z,35.49
2018-07-03T17:08:18.935Z,35.34
2018-07-03T17:10:48.302Z,35.08
2018-07-03T17:13:17.718Z,34.65
2018-07-03T17:15:47.043Z,34.67
2018-07-03T17:18:16.744Z,34.55
2018-07-03T17:20:46.099Z,35.04
2018-07-03T17:23:15.412Z,35.03
2018-07-03T17:25:45.925Z,34.85
2018-07-03T17:28:15.301Z,34.92
2018-07-03T17:30:45.842Z,34.41
2018-07-03T17:33:15.660Z,34.19
2018-07-03T17:35:45.277Z,32.88
2018-07-03T17:38:15.044Z,33.35
2018-07-03T17:43:02.852Z,33.78
2018-07-03T17:45:44.905Z,34.12
2018-07-03T17:48:15.838Z,33.78
2018-07-03T17:50:45.164Z,33.27
2018-07-03T17:53:14.806Z,33.33
2018-07-03T17:55:44.782Z,33.00
2018-07-03T17:58:14.460Z,33.26
2018-07-03T18:00:44.200Z,33.14
2018-07-03T18:03:15.290Z,33.10
2018-07-03T18:05:44.616Z,32.69
2018-07-03T18:08:14.329Z,32.71
2018-07-03T18:10:43.674Z,32.48
2018-07-03T18:13:14.118Z,32.38
2018-07-03T18:15:43.488Z,32.23
2018-07-03T18:18:13.395Z,31.82
2018-07-03T18:20:42.739Z,32.07
2018-07-03T18:23:12.971Z,31.89
2018-07-03T18:25:42.673Z,31.72
2018-07-03T18:28:12.291Z,31.73
2018-07-03T18:30:41.616Z,31.49
2018-07-03T18:33:11.301Z,31.31
2018-07-03T18:35:41.135Z,31.15
2018-07-03T18:38:11.296Z,30.95
2018-07-03T18:40:41.495Z,30.98
2018-07-03T18:43:10.916Z,30.85
2018-07-03T18:45:40.507Z,30.74
2018-07-03T18:48:10.315Z,30.49
2018-07-03T18:50:39.771Z,30.34
2018-07-03T18:53:11.020Z,30.48
2018-07-03T18:55:40.993Z,30.58
2018-07-03T18:58:10.858Z,30.35
2018-07-03T19:00:40.294Z,30.18
2018-07-03T19:03:10.453Z,30.19
2018-07-03T19:05:39.812Z,30.11
2018-07-03T19:08:09.630Z,30.02
2018-07-03T19:10:39.573Z,29.87
2018-07-03T19:13:08.885Z,29.84
2018-07-03T19:15:38.578Z,29.80
2018-07-03T19:18:08.328Z,28.95
2018-07-03T19:20:37.744Z,28.52
2018-07-03T19:23:07.248Z,28.47
2018-07-03T19:25:37.121Z,28.22
2018-07-03T19:28:06.531Z,28.51
2018-07-03T19:30:37.017Z,28.26
2018-07-03T19:33:08.942Z,28.12
2018-07-03T19:35:38.297Z,28.11
2018-07-03T19:38:07.956Z,28.08
2018-07-03T19:40:37.459Z,27.74
2018-07-03T19:43:22.605Z,27.71
2018-07-03T19:45:52.815Z,27.54
2018-07-03T19:48:22.488Z,27.47
2018-07-03T19:50:53.419Z,27.51
2018-07-03T19:53:23.140Z,27.10
2018-07-03T19:55:54.035Z,26.87
2018-07-03T19:58:24.175Z,26.73
2018-07-03T20:00:54.610Z,26.47
2018-07-03T20:03:24.919Z,26.27
2018-07-03T20:05:54.322Z,26.14
2018-07-03T20:08:23.668Z,26.08
2018-07-03T20:10:53.048Z,25.84
2018-07-03T20:13:22.386Z,25.85
2018-07-03T20:15:53.470Z,25.58
2018-07-03T20:18:23.102Z,25.35
2018-07-03T20:20:53.188Z,25.14
2018-07-03T20:23:22.823Z,25.14
2018-07-03T20:25:52.609Z,25.30
2018-07-03T20:28:22.384Z,25.10
2018-07-03T20:30:52.032Z,25.31
2018-07-03T20:33:26.961Z,25.10
2018-07-03T20:35:56.693Z,24.78
2018-07-03T20:38:26.953Z,24.80
2018-07-03T20:40:59.145Z,24.76
2018-07-03T20:43:30.513Z,24.68
2018-07-03T20:46:00.141Z,24.54
2018-07-03T20:48:30.057Z,24.55
2018-07-03T20:51:00.340Z,24.43
2018-07-03T20:53:30.528Z,24.52
2018-07-03T20:56:00.128Z,24.08
2018-07-03T20:58:29.489Z,24.08
2018-07-03T21:00:59.700Z,23.91
2018-07-03T21:03:30.544Z,23.70
2018-07-03T21:05:59.939Z,23.66
2018-07-03T21:08:29.600Z,23.51
2018-07-03T21:10:59.174Z,23.46
2018-07-03T21:13:29.881Z,23.41
2018-07-03T21:15:59.239Z,23.34
2018-07-03T21:18:28.864Z,23.10
2018-07-03T21:20:58.185Z,23.20
2018-07-03T21:23:27.555Z,23.28
2018-07-03T21:25:56.902Z,23.05
2018-07-03T21:28:26.321Z,23.14
2018-07-03T21:30:55.651Z,23.14
2018-07-03T21:33:25.287Z,23.18
2018-07-03T21:35:55.432Z,23.01
2018-07-03T21:38:25.740Z,22.81
2018-07-03T21:40:55.317Z,22.73
2018-07-03T21:43:24.984Z,22.73
2018-07-03T21:45:54.737Z,22.82
2018-07-03T21:48:24.088Z,22.67
2018-07-03T21:50:53.401Z,22.73
2018-07-03T21:53:23.173Z,22.58
2018-07-03T21:55:53.068Z,22.57
2018-07-03T21:58:22.418Z,22.47
2018-07-03T22:00:53.416Z,21.90
2018-07-03T22:03:23.038Z,21.89
2018-07-03T22:05:53.489Z,21.84
2018-07-03T22:08:24.004Z,21.65
2018-07-03T22:10:53.298Z,21.57
2018-07-03T22:13:22.928Z,21.57
2018-07-03T22:15:53.536Z,21.82
2018-07-03T22:18:23.007Z,21.96
2018-07-03T22:20:52.878Z,21.58
2018-07-03T22:23:22.580Z,21.66
2018-07-03T22:25:52.668Z,21.67
2018-07-03T22:28:22.358Z,21.41
2018-07-03T22:30:51.696Z,21.12
2018-07-03T22:33:21.333Z,21.06
2018-07-03T22:35:50.924Z,21.06
2018-07-03T22:38:21.812Z,20.96
2018-07-03T22:40:51.201Z,20.88
2018-07-03T22:43:20.502Z,20.84
2018-07-03T22:45:49.872Z,20.76
2018-07-03T22:48:21.953Z,20.64
2018-07-03T22:50:52.245Z,20.90
2018-07-03T22:53:21.549Z,20.95
2018-07-03T22:55:50.900Z,20.84
2018-07-03T22:58:20.386Z,20.84
2018-07-03T23:00:50.080Z,20.60
2018-07-03T23:03:19.807Z,20.45
2018-07-03T23:05:49.736Z,20.27
2018-07-03T23:08:19.404Z,20.25
2018-07-03T23:10:49.124Z,20.17
2018-07-03T23:13:19.945Z,19.83
2018-07-03T23:15:49.627Z,19.78
2018-07-03T23:18:18.929Z,19.80
2018-07-03T23:20:49.216Z,19.70
2018-07-03T23:23:18.545Z,19.68
2018-07-03T23:25:47.853Z,19.85
2018-07-03T23:28:17.423Z,20.14
2018-07-03T23:30:47.357Z,20.13
2018-07-03T23:33:17.092Z,20.28
2018-07-03T23:35:46.404Z,20.41
2018-07-03T23:38:16.064Z,20.12
2018-07-03T23:40:46.248Z,20.22
2018-07-03T23:43:15.615Z,20.07
2018-07-03T23:45:58.108Z,19.75
2018-07-03T23:48:38.340Z,19.39
2018-07-03T23:51:24.657Z,19.26
2018-07-03T23:54:11.118Z,19.04
2018-07-03T23:56:57.449Z,19.20
2018-07-03T23:59:44.410Z,19.27
